sensor_id;sensor_type;location;lat;lon;timestamp;P1;durP1;ratioP1;P2;durP2;ratioP2
31298;SDS011;17927;52.350;13.402;2022-11-06T00:00:39;11.32;;;4.15;;
31298;SDS011;17927;52.350;13.402;2022-11-06T00:03:05;10.55;;;4.40;;
31298;SDS011;17927;52.350;13.402;2022-11-06T00:05:31;9.32;;;4.07;;
31298;SDS011;17927;52.350;13.402;2022-11-06T00:08:15;8.63;;;4.20;;
31298;SDS011;17927;52.350;13.402;2022-11-06T00:10:49;13.50;;;4.15;;
31298;SDS011;17927;52.350;13.402;2022-11-06T00:13:14;5.35;;;3.75;;
31298;SDS011;17927;52.350;13.402;2022-11-06T00:15:40;6.13;;;3.83;;
31298;SDS011;17927;52.350;13.402;2022-11-06T00:18:05;10.10;;;4.03;;
31298;SDS011;17927;52.350;13.402;2022-11-06T00:20:30;8.57;;;4.43;;
31298;SDS011;17927;52.350;13.402;2022-11-06T00:22:56;7.32;;;4.28;;
31298;SDS011;17927;52.350;13.402;2022-11-06T00:25:21;6.65;;;4.13;;
31298;SDS011;17927;52.350;13.402;2022-11-06T00:27:46;9.77;;;4.28;;
31298;SDS011;17927;52.350;13.402;2022-11-06T00:30:11;14.13;;;4.72;;
31298;SDS011;17927;52.350;13.402;2022-11-06T00:32:37;5.43;;;3.90;;
31298;SDS011;17927;52.350;13.402;2022-11-06T00:35:03;8.63;;;4.50;;
31298;SDS011;17927;52.350;13.402;2022-11-06T00:37:29;8.43;;;4.32;;
31298;SDS011;17927;52.350;13.402;2022-11-06T00:39:54;7.03;;;4.82;;
31298;SDS011;17927;52.350;13.402;2022-11-06T00:42:19;8.23;;;4.53;;
31298;SDS011;17927;52.350;13.402;2022-11-06T00:44:44;8.07;;;4.10;;
31298;SDS011;17927;52.350;13.402;2022-11-06T00:47:10;7.68;;;4.75;;
31298;SDS011;17927;52.350;13.402;2022-11-06T00:49:36;9.93;;;4.65;;
31298;SDS011;17927;52.350;13.402;2022-11-06T00:52:01;12.43;;;4.90;;
31298;SDS011;17927;52.350;13.402;2022-11-06T00:54:26;7.45;;;4.63;;
31298;SDS011;17927;52.350;13.402;2022-11-06T00:56:51;10.77;;;4.97;;
31298;SDS011;17927;52.350;13.402;2022-11-06T00:59:17;7.60;;;4.53;;
31298;SDS011;17927;52.350;13.402;2022-11-06T01:01:43;11.05;;;4.88;;
31298;SDS011;17927;52.350;13.402;2022-11-06T01:04:13;5.68;;;4.50;;
31298;SDS011;17927;52.350;13.402;2022-11-06T01:06:47;7.47;;;4.38;;
31298;SDS011;17927;52.350;13.402;2022-11-06T01:09:16;10.15;;;4.75;;
31298;SDS011;17927;52.350;13.402;2022-11-06T01:11:46;10.73;;;4.82;;
31298;SDS011;17927;52.350;13.402;2022-11-06T01:14:14;10.23;;;4.63;;
31298;SDS011;17927;52.350;13.402;2022-11-06T01:16:40;9.07;;;4.88;;
31298;SDS011;17927;52.350;13.402;2022-11-06T01:19:06;8.88;;;4.75;;
31298;SDS011;17927;52.350;13.402;2022-11-06T01:21:33;10.82;;;4.53;;
31298;SDS011;17927;52.350;13.402;2022-11-06T01:24:01;7.28;;;4.95;;
31298;SDS011;17927;52.350;13.402;2022-11-06T01:26:31;16.25;;;5.85;;
31298;SDS011;17927;52.350;13.402;2022-11-06T01:28:57;7.07;;;5.05;;
31298;SDS011;17927;52.350;13.402;2022-11-06T01:31:23;10.45;;;4.97;;
31298;SDS011;17927;52.350;13.402;2022-11-06T01:33:53;10.70;;;4.70;;
31298;SDS011;17927;52.350;13.402;2022-11-06T01:36:19;7.70;;;5.00;;
31298;SDS011;17927;52.350;13.402;2022-11-06T01:38:45;9.70;;;5.53;;
31298;SDS011;17927;52.350;13.402;2022-11-06T01:41:12;12.82;;;5.22;;
31298;SDS011;17927;52.350;13.402;2022-11-06T01:43:51;8.13;;;5.03;;
31298;SDS011;17927;52.350;13.402;2022-11-06T01:46:18;7.82;;;4.68;;
31298;SDS011;17927;52.350;13.402;2022-11-06T01:48:47;9.93;;;5.30;;
31298;SDS011;17927;52.350;13.402;2022-11-06T01:51:16;12.85;;;4.68;;
31298;SDS011;17927;52.350;13.402;2022-11-06T01:53:43;13.70;;;6.13;;
31298;SDS011;17927;52.350;13.402;2022-11-06T01:56:08;8.35;;;5.30;;
31298;SDS011;17927;52.350;13.402;2022-11-06T01:58:36;11.95;;;5.10;;
31298;SDS011;17927;52.350;13.402;2022-11-06T02:01:04;10.20;;;5.68;;
31298;SDS011;17927;52.350;13.402;2022-11-06T02:03:31;9.80;;;5.13;;
31298;SDS011;17927;52.350;13.402;2022-11-06T02:05:56;8.27;;;5.10;;
31298;SDS011;17927;52.350;13.402;2022-11-06T02:08:22;10.57;;;5.72;;
31298;SDS011;17927;52.350;13.402;2022-11-06T02:10:48;12.18;;;5.53;;
31298;SDS011;17927;52.350;13.402;2022-11-06T02:15:52;7.95;;;5.32;;
31298;SDS011;17927;52.350;13.402;2022-11-06T02:21:23;10.77;;;5.45;;
31298;SDS011;17927;52.350;13.402;2022-11-06T02:27:11;7.22;;;4.65;;
31298;SDS011;17927;52.350;13.402;2022-11-06T02:32:15;5.90;;;4.65;;
31298;SDS011;17927;52.350;13.402;2022-11-06T02:34:45;9.43;;;4.90;;
31298;SDS011;17927;52.350;13.402;2022-11-06T02:37:14;10.20;;;5.72;;
31298;SDS011;17927;52.350;13.402;2022-11-06T02:42:11;6.65;;;4.60;;
31298;SDS011;17927;52.350;13.402;2022-11-06T02:44:40;10.98;;;5.28;;
31298;SDS011;17927;52.350;13.402;2022-11-06T02:47:08;8.93;;;5.57;;
31298;SDS011;17927;52.350;13.402;2022-11-06T02:49:52;11.73;;;5.20;;
31298;SDS011;17927;52.350;13.402;2022-11-06T02:52:31;8.50;;;5.80;;
31298;SDS011;17927;52.350;13.402;2022-11-06T02:55:10;7.90;;;5.32;;
31298;SDS011;17927;52.350;13.402;2022-11-06T02:57:42;8.50;;;5.18;;
31298;SDS011;17927;52.350;13.402;2022-11-06T03:00:12;6.22;;;5.60;;
31298;SDS011;17927;52.350;13.402;2022-11-06T03:05:29;6.38;;;4.88;;
31298;SDS011;17927;52.350;13.402;2022-11-06T03:08:09;9.05;;;5.88;;
31298;SDS011;17927;52.350;13.402;2022-11-06T03:16:14;9.20;;;5.57;;
31298;SDS011;17927;52.350;13.402;2022-11-06T03:18:54;13.43;;;5.20;;
31298;SDS011;17927;52.350;13.402;2022-11-06T03:21:32;8.88;;;5.07;;
31298;SDS011;17927;52.350;13.402;2022-11-06T03:24:02;9.43;;;5.30;;
31298;SDS011;17927;52.350;13.402;2022-11-06T03:26:35;10.57;;;5.57;;
31298;SDS011;17927;52.350;13.402;2022-11-06T03:29:17;5.40;;;4.85;;
31298;SDS011;17927;52.350;13.402;2022-11-06T03:31:50;6.05;;;5.40;;
31298;SDS011;17927;52.350;13.402;2022-11-06T03:34:26;6.90;;;5.15;;
31298;SDS011;17927;52.350;13.402;2022-11-06T03:36:56;9.23;;;5.80;;
31298;SDS011;17927;52.350;13.402;2022-11-06T03:39:30;9.07;;;5.10;;
31298;SDS011;17927;52.350;13.402;2022-11-06T03:42:03;8.18;;;5.55;;
31298;SDS011;17927;52.350;13.402;2022-11-06T03:44:31;9.05;;;5.90;;
31298;SDS011;17927;52.350;13.402;2022-11-06T03:47:11;7.70;;;5.70;;
31298;SDS011;17927;52.350;13.402;2022-11-06T03:49:50;11.50;;;5.57;;
31298;SDS011;17927;52.350;13.402;2022-11-06T03:52:29;10.75;;;5.40;;
31298;SDS011;17927;52.350;13.402;2022-11-06T03:55:00;8.95;;;5.75;;
31298;SDS011;17927;52.350;13.402;2022-11-06T03:57:43;7.63;;;5.30;;
31298;SDS011;17927;52.350;13.402;2022-11-06T04:00:14;15.52;;;5.93;;
31298;SDS011;17927;52.350;13.402;2022-11-06T04:02:42;9.27;;;6.07;;
31298;SDS011;17927;52.350;13.402;2022-11-06T04:05:14;8.93;;;5.97;;
31298;SDS011;17927;52.350;13.402;2022-11-06T04:07:45;10.27;;;5.47;;
31298;SDS011;17927;52.350;13.402;2022-11-06T04:10:32;9.15;;;5.53;;
31298;SDS011;17927;52.350;13.402;2022-11-06T04:13:19;7.05;;;5.80;;
31298;SDS011;17927;52.350;13.402;2022-11-06T04:16:05;6.18;;;5.60;;
31298;SDS011;17927;52.350;13.402;2022-11-06T04:18:32;11.02;;;5.60;;
31298;SDS011;17927;52.350;13.402;2022-11-06T04:30:01;6.55;;;5.35;;
31298;SDS011;17927;52.350;13.402;2022-11-06T04:37:51;12.88;;;6.13;;
31298;SDS011;17927;52.350;13.402;2022-11-06T04:40:36;7.20;;;5.97;;
31298;SDS011;17927;52.350;13.402;2022-11-06T04:43:18;7.35;;;5.43;;
31298;SDS011;17927;52.350;13.402;2022-11-06T04:45:50;9.85;;;5.72;;
31298;SDS011;17927;52.350;13.402;2022-11-06T04:48:19;11.20;;;5.85;;
31298;SDS011;17927;52.350;13.402;2022-11-06T04:50:47;9.27;;;6.55;;
31298;SDS011;17927;52.350;13.402;2022-11-06T04:53:16;8.98;;;5.85;;
31298;SDS011;17927;52.350;13.402;2022-11-06T04:55:47;6.15;;;5.40;;
31298;SDS011;17927;52.350;13.402;2022-11-06T04:58:16;8.82;;;6.60;;
31298;SDS011;17927;52.350;13.402;2022-11-06T05:00:45;9.63;;;6.15;;
31298;SDS011;17927;52.350;13.402;2022-11-06T05:03:12;11.38;;;6.30;;
31298;SDS011;17927;52.350;13.402;2022-11-06T05:05:38;9.38;;;6.13;;
31298;SDS011;17927;52.350;13.402;2022-11-06T05:08:03;8.25;;;5.70;;
31298;SDS011;17927;52.350;13.402;2022-11-06T05:10:28;9.70;;;5.90;;
31298;SDS011;17927;52.350;13.402;2022-11-06T05:12:54;11.18;;;6.38;;
31298;SDS011;17927;52.350;13.402;2022-11-06T05:15:19;13.38;;;5.47;;
31298;SDS011;17927;52.350;13.402;2022-11-06T05:17:44;8.25;;;6.55;;
31298;SDS011;17927;52.350;13.402;2022-11-06T05:20:10;9.52;;;6.85;;
31298;SDS011;17927;52.350;13.402;2022-11-06T05:22:40;7.53;;;6.38;;
31298;SDS011;17927;52.350;13.402;2022-11-06T05:25:24;10.00;;;6.43;;
31298;SDS011;17927;52.350;13.402;2022-11-06T05:27:55;7.22;;;6.10;;
31298;SDS011;17927;52.350;13.402;2022-11-06T05:30:20;10.10;;;6.15;;
31298;SDS011;17927;52.350;13.402;2022-11-06T05:32:46;8.52;;;5.80;;
31298;SDS011;17927;52.350;13.402;2022-11-06T05:35:12;9.75;;;6.32;;
31298;SDS011;17927;52.350;13.402;2022-11-06T05:37:38;6.90;;;5.82;;
31298;SDS011;17927;52.350;13.402;2022-11-06T05:40:03;8.18;;;6.25;;
31298;SDS011;17927;52.350;13.402;2022-11-06T05:42:29;7.43;;;6.05;;
31298;SDS011;17927;52.350;13.402;2022-11-06T05:44:54;7.63;;;6.03;;
31298;SDS011;17927;52.350;13.402;2022-11-06T05:47:19;8.70;;;6.65;;
31298;SDS011;17927;52.350;13.402;2022-11-06T05:49:44;12.63;;;7.28;;
31298;SDS011;17927;52.350;13.402;2022-11-06T05:52:10;10.98;;;7.07;;
31298;SDS011;17927;52.350;13.402;2022-11-06T05:54:35;10.02;;;7.20;;
31298;SDS011;17927;52.350;13.402;2022-11-06T05:57:00;9.70;;;6.43;;
31298;SDS011;17927;52.350;13.402;2022-11-06T05:59:26;10.27;;;6.97;;
31298;SDS011;17927;52.350;13.402;2022-11-06T06:01:51;8.68;;;6.57;;
31298;SDS011;17927;52.350;13.402;2022-11-06T06:04:16;8.75;;;6.50;;
31298;SDS011;17927;52.350;13.402;2022-11-06T06:06:41;8.18;;;6.75;;
31298;SDS011;17927;52.350;13.402;2022-11-06T06:09:07;11.45;;;6.57;;
31298;SDS011;17927;52.350;13.402;2022-11-06T06:11:32;11.85;;;6.88;;
31298;SDS011;17927;52.350;13.402;2022-11-06T06:13:58;12.38;;;7.28;;
31298;SDS011;17927;52.350;13.402;2022-11-06T06:16:24;9.25;;;7.07;;
31298;SDS011;17927;52.350;13.402;2022-11-06T06:18:49;10.20;;;7.00;;
31298;SDS011;17927;52.350;13.402;2022-11-06T06:21:17;11.07;;;6.93;;
31298;SDS011;17927;52.350;13.402;2022-11-06T06:23:42;11.77;;;7.13;;
31298;SDS011;17927;52.350;13.402;2022-11-06T06:26:08;13.30;;;9.93;;
31298;SDS011;17927;52.350;13.402;2022-11-06T06:28:33;12.70;;;8.23;;
31298;SDS011;17927;52.350;13.402;2022-11-06T06:31:02;15.63;;;8.38;;
31298;SDS011;17927;52.350;13.402;2022-11-06T06:33:29;24.65;;;15.80;;
31298;SDS011;17927;52.350;13.402;2022-11-06T06:35:54;11.90;;;8.30;;
31298;SDS011;17927;52.350;13.402;2022-11-06T06:38:21;14.88;;;8.73;;
31298;SDS011;17927;52.350;13.402;2022-11-06T06:40:47;13.35;;;8.85;;
31298;SDS011;17927;52.350;13.402;2022-11-06T06:43:13;11.63;;;8.00;;
31298;SDS011;17927;52.350;13.402;2022-11-06T06:45:38;11.70;;;7.78;;
31298;SDS011;17927;52.350;13.402;2022-11-06T06:48:03;11.82;;;7.25;;
31298;SDS011;17927;52.350;13.402;2022-11-06T06:50:29;7.43;;;6.70;;
31298;SDS011;17927;52.350;13.402;2022-11-06T06:52:56;13.25;;;8.48;;
31298;SDS011;17927;52.350;13.402;2022-11-06T06:55:22;12.45;;;7.47;;
31298;SDS011;17927;52.350;13.402;2022-11-06T06:57:48;12.63;;;7.45;;
31298;SDS011;17927;52.350;13.402;2022-11-06T07:00:19;9.95;;;7.13;;
31298;SDS011;17927;52.350;13.402;2022-11-06T07:02:44;8.85;;;6.65;;
31298;SDS011;17927;52.350;13.402;2022-11-06T07:05:10;8.10;;;7.28;;
31298;SDS011;17927;52.350;13.402;2022-11-06T07:07:35;10.52;;;7.60;;
31298;SDS011;17927;52.350;13.402;2022-11-06T07:10:02;14.82;;;7.15;;
31298;SDS011;17927;52.350;13.402;2022-11-06T07:12:28;9.80;;;6.90;;
31298;SDS011;17927;52.350;13.402;2022-11-06T07:14:53;13.57;;;7.28;;
31298;SDS011;17927;52.350;13.402;2022-11-06T07:17:18;9.75;;;7.07;;
31298;SDS011;17927;52.350;13.402;2022-11-06T07:19:43;8.02;;;7.05;;
31298;SDS011;17927;52.350;13.402;2022-11-06T07:22:08;11.52;;;7.28;;
31298;SDS011;17927;52.350;13.402;2022-11-06T07:24:34;9.20;;;7.25;;
31298;SDS011;17927;52.350;13.402;2022-11-06T07:26:59;10.90;;;7.43;;
31298;SDS011;17927;52.350;13.402;2022-11-06T07:29:24;8.90;;;7.25;;
31298;SDS011;17927;52.350;13.402;2022-11-06T07:31:49;10.30;;;7.45;;
31298;SDS011;17927;52.350;13.402;2022-11-06T07:34:15;12.88;;;7.85;;
31298;SDS011;17927;52.350;13.402;2022-11-06T07:36:40;10.40;;;7.50;;
31298;SDS011;17927;52.350;13.402;2022-11-06T07:39:05;12.80;;;9.15;;
31298;SDS011;17927;52.350;13.402;2022-11-06T07:41:30;15.63;;;9.70;;
31298;SDS011;17927;52.350;13.402;2022-11-06T07:43:56;10.27;;;7.97;;
31298;SDS011;17927;52.350;13.402;2022-11-06T07:46:21;12.60;;;8.98;;
31298;SDS011;17927;52.350;13.402;2022-11-06T07:48:46;8.05;;;7.25;;
31298;SDS011;17927;52.350;13.402;2022-11-06T07:51:12;12.00;;;8.68;;
31298;SDS011;17927;52.350;13.402;2022-11-06T07:53:37;13.07;;;8.02;;
31298;SDS011;17927;52.350;13.402;2022-11-06T07:56:03;11.77;;;7.68;;
31298;SDS011;17927;52.350;13.402;2022-11-06T07:58:28;11.65;;;8.15;;
31298;SDS011;17927;52.350;13.402;2022-11-06T08:00:55;9.95;;;8.25;;
31298;SDS011;17927;52.350;13.402;2022-11-06T08:03:22;9.60;;;8.27;;
31298;SDS011;17927;52.350;13.402;2022-11-06T08:05:48;12.85;;;9.30;;
31298;SDS011;17927;52.350;13.402;2022-11-06T08:08:13;9.30;;;7.82;;
31298;SDS011;17927;52.350;13.402;2022-11-06T08:10:39;11.63;;;7.07;;
31298;SDS011;17927;52.350;13.402;2022-11-06T08:13:07;11.05;;;8.20;;
31298;SDS011;17927;52.350;13.402;2022-11-06T08:15:37;8.55;;;7.65;;
31298;SDS011;17927;52.350;13.402;2022-11-06T08:18:03;10.55;;;7.78;;
31298;SDS011;17927;52.350;13.402;2022-11-06T08:20:29;13.15;;;7.35;;
31298;SDS011;17927;52.350;13.402;2022-11-06T08:23:01;8.95;;;7.60;;
31298;SDS011;17927;52.350;13.402;2022-11-06T08:25:28;8.57;;;7.60;;
31298;SDS011;17927;52.350;13.402;2022-11-06T08:27:54;9.82;;;7.70;;
31298;SDS011;17927;52.350;13.402;2022-11-06T08:30:20;9.60;;;7.15;;
31298;SDS011;17927;52.350;13.402;2022-11-06T08:32:46;11.43;;;8.35;;
31298;SDS011;17927;52.350;13.402;2022-11-06T08:35:11;11.57;;;8.18;;
31298;SDS011;17927;52.350;13.402;2022-11-06T08:37:36;8.73;;;7.15;;
31298;SDS011;17927;52.350;13.402;2022-11-06T08:40:02;8.55;;;7.32;;
31298;SDS011;17927;52.350;13.402;2022-11-06T08:42:28;9.57;;;7.78;;
31298;SDS011;17927;52.350;13.402;2022-11-06T08:44:53;8.38;;;7.30;;
31298;SDS011;17927;52.350;13.402;2022-11-06T08:47:18;12.82;;;7.40;;
31298;SDS011;17927;52.350;13.402;2022-11-06T08:49:44;9.10;;;7.25;;
31298;SDS011;17927;52.350;13.402;2022-11-06T08:52:09;10.82;;;7.68;;
31298;SDS011;17927;52.350;13.402;2022-11-06T08:54:34;7.85;;;6.72;;
31298;SDS011;17927;52.350;13.402;2022-11-06T08:57:00;9.13;;;7.40;;
31298;SDS011;17927;52.350;13.402;2022-11-06T08:59:26;8.43;;;7.50;;
31298;SDS011;17927;52.350;13.402;2022-11-06T09:01:51;7.10;;;6.35;;
31298;SDS011;17927;52.350;13.402;2022-11-06T09:04:16;11.38;;;7.47;;
31298;SDS011;17927;52.350;13.402;2022-11-06T09:06:41;10.35;;;6.68;;
31298;SDS011;17927;52.350;13.402;2022-11-06T09:09:06;8.65;;;6.78;;
31298;SDS011;17927;52.350;13.402;2022-11-06T09:11:32;9.88;;;6.30;;
31298;SDS011;17927;52.350;13.402;2022-11-06T09:13:57;10.10;;;7.10;;
31298;SDS011;17927;52.350;13.402;2022-11-06T09:16:22;8.32;;;5.75;;
31298;SDS011;17927;52.350;13.402;2022-11-06T09:18:48;7.20;;;6.22;;
31298;SDS011;17927;52.350;13.402;2022-11-06T09:21:13;9.18;;;6.32;;
31298;SDS011;17927;52.350;13.402;2022-11-06T09:23:39;6.57;;;5.53;;
31298;SDS011;17927;52.350;13.402;2022-11-06T09:26:04;7.53;;;5.50;;
31298;SDS011;17927;52.350;13.402;2022-11-06T09:28:29;7.97;;;5.45;;
31298;SDS011;17927;52.350;13.402;2022-11-06T09:30:55;7.15;;;5.05;;
31298;SDS011;17927;52.350;13.402;2022-11-06T09:33:20;8.43;;;5.78;;
31298;SDS011;17927;52.350;13.402;2022-11-06T09:35:45;6.65;;;5.38;;
31298;SDS011;17927;52.350;13.402;2022-11-06T09:38:11;7.43;;;5.20;;
31298;SDS011;17927;52.350;13.402;2022-11-06T09:40:41;6.43;;;5.00;;
31298;SDS011;17927;52.350;13.402;2022-11-06T09:43:19;5.85;;;4.72;;
31298;SDS011;17927;52.350;13.402;2022-11-06T09:46:21;8.40;;;5.70;;
31298;SDS011;17927;52.350;13.402;2022-11-06T09:48:50;9.13;;;5.50;;
31298;SDS011;17927;52.350;13.402;2022-11-06T09:54:20;5.95;;;5.40;;
31298;SDS011;17927;52.350;13.402;2022-11-06T09:56:51;9.63;;;5.53;;
31298;SDS011;17927;52.350;13.402;2022-11-06T09:59:27;9.88;;;5.32;;
31298;SDS011;17927;52.350;13.402;2022-11-06T10:04:39;7.03;;;5.07;;
31298;SDS011;17927;52.350;13.402;2022-11-06T10:07:24;5.68;;;5.13;;
31298;SDS011;17927;52.350;13.402;2022-11-06T10:09:53;6.60;;;4.75;;
31298;SDS011;17927;52.350;13.402;2022-11-06T10:12:23;5.90;;;5.13;;
31298;SDS011;17927;52.350;13.402;2022-11-06T10:15:01;12.43;;;6.00;;
31298;SDS011;17927;52.350;13.402;2022-11-06T10:17:44;10.10;;;5.45;;
31298;SDS011;17927;52.350;13.402;2022-11-06T10:20:19;7.85;;;5.47;;
31298;SDS011;17927;52.350;13.402;2022-11-06T10:22:56;12.38;;;5.65;;
31298;SDS011;17927;52.350;13.402;2022-11-06T10:25:39;5.03;;;4.60;;
31298;SDS011;17927;52.350;13.402;2022-11-06T10:34:05;6.20;;;5.60;;
31298;SDS011;17927;52.350;13.402;2022-11-06T10:36:35;9.15;;;4.85;;
31298;SDS011;17927;52.350;13.402;2022-11-06T10:39:09;6.85;;;5.80;;
31298;SDS011;17927;52.350;13.402;2022-11-06T10:41:42;7.13;;;5.65;;
31298;SDS011;17927;52.350;13.402;2022-11-06T10:46:45;9.70;;;4.90;;
31298;SDS011;17927;52.350;13.402;2022-11-06T10:49:34;7.03;;;4.78;;
31298;SDS011;17927;52.350;13.402;2022-11-06T10:52:12;5.75;;;5.20;;
31298;SDS011;17927;52.350;13.402;2022-11-06T10:57:51;7.10;;;4.90;;
31298;SDS011;17927;52.350;13.402;2022-11-06T11:00:21;8.35;;;4.72;;
31298;SDS011;17927;52.350;13.402;2022-11-06T11:02:47;7.13;;;4.78;;
31298;SDS011;17927;52.350;13.402;2022-11-06T11:05:16;7.18;;;4.50;;
31298;SDS011;17927;52.350;13.402;2022-11-06T11:07:44;6.20;;;4.10;;
31298;SDS011;17927;52.350;13.402;2022-11-06T11:12:51;6.03;;;4.20;;
31298;SDS011;17927;52.350;13.402;2022-11-06T11:15:19;9.55;;;5.50;;
31298;SDS011;17927;52.350;13.402;2022-11-06T11:20:32;5.85;;;4.35;;
31298;SDS011;17927;52.350;13.402;2022-11-06T11:23:32;6.50;;;3.70;;
31298;SDS011;17927;52.350;13.402;2022-11-06T11:25:51;7.43;;;4.35;;
31298;SDS011;17927;52.350;13.402;2022-11-06T11:28:20;5.55;;;4.03;;
31298;SDS011;17927;52.350;13.402;2022-11-06T11:30:55;5.22;;;4.15;;
31298;SDS011;17927;52.350;13.402;2022-11-06T11:33:28;5.88;;;4.05;;
31298;SDS011;17927;52.350;13.402;2022-11-06T11:35:54;4.55;;;3.83;;
31298;SDS011;17927;52.350;13.402;2022-11-06T11:38:19;4.43;;;3.78;;
31298;SDS011;17927;52.350;13.402;2022-11-06T11:40:46;4.50;;;3.38;;
31298;SDS011;17927;52.350;13.402;2022-11-06T11:43:28;4.82;;;3.30;;
31298;SDS011;17927;52.350;13.402;2022-11-06T11:46:03;5.15;;;4.20;;
31298;SDS011;17927;52.350;13.402;2022-11-06T11:51:23;5.30;;;3.83;;
31298;SDS011;17927;52.350;13.402;2022-11-06T11:53:55;3.72;;;2.78;;
31298;SDS011;17927;52.350;13.402;2022-11-06T11:56:26;3.78;;;2.92;;
31298;SDS011;17927;52.350;13.402;2022-11-06T11:58:54;3.65;;;2.67;;
31298;SDS011;17927;52.350;13.402;2022-11-06T12:01:30;5.80;;;2.53;;
31298;SDS011;17927;52.350;13.402;2022-11-06T12:03:59;4.55;;;3.00;;
31298;SDS011;17927;52.350;13.402;2022-11-06T12:06:24;7.10;;;3.00;;
31298;SDS011;17927;52.350;13.402;2022-11-06T12:08:51;6.70;;;3.53;;
31298;SDS011;17927;52.350;13.402;2022-11-06T12:11:22;4.28;;;2.95;;
31298;SDS011;17927;52.350;13.402;2022-11-06T12:17:08;3.97;;;2.80;;
31298;SDS011;17927;52.350;13.402;2022-11-06T12:19:39;2.80;;;2.42;;
31298;SDS011;17927;52.350;13.402;2022-11-06T12:22:11;5.43;;;2.03;;
31298;SDS011;17927;52.350;13.402;2022-11-06T12:24:50;2.67;;;2.35;;
31298;SDS011;17927;52.350;13.402;2022-11-06T12:27:23;4.00;;;2.47;;
31298;SDS011;17927;52.350;13.402;2022-11-06T12:30:13;2.72;;;2.45;;
31298;SDS011;17927;52.350;13.402;2022-11-06T12:32:52;3.80;;;2.25;;
31298;SDS011;17927;52.350;13.402;2022-11-06T12:41:00;3.80;;;2.40;;
31298;SDS011;17927;52.350;13.402;2022-11-06T12:46:11;4.32;;;2.33;;
31298;SDS011;17927;52.350;13.402;2022-11-06T12:51:42;5.88;;;2.03;;
31298;SDS011;17927;52.350;13.402;2022-11-06T12:54:27;2.67;;;1.80;;
31298;SDS011;17927;52.350;13.402;2022-11-06T13:00:04;3.33;;;1.95;;
31298;SDS011;17927;52.350;13.402;2022-11-06T13:05:27;2.08;;;1.80;;
31298;SDS011;17927;52.350;13.402;2022-11-06T13:08:01;6.65;;;2.65;;
31298;SDS011;17927;52.350;13.402;2022-11-06T13:10:38;3.58;;;1.90;;
31298;SDS011;17927;52.350;13.402;2022-11-06T13:18:19;2.28;;;1.83;;
31298;SDS011;17927;52.350;13.402;2022-11-06T13:23:43;3.40;;;1.70;;
31298;SDS011;17927;52.350;13.402;2022-11-06T13:28:51;4.40;;;1.50;;
31298;SDS011;17927;52.350;13.402;2022-11-06T13:31:35;3.25;;;1.48;;
31298;SDS011;17927;52.350;13.402;2022-11-06T13:34:04;5.60;;;1.80;;
31298;SDS011;17927;52.350;13.402;2022-11-06T13:36:31;2.67;;;1.92;;
31298;SDS011;17927;52.350;13.402;2022-11-06T13:41:39;2.53;;;1.65;;
31298;SDS011;17927;52.350;13.402;2022-11-06T13:44:05;5.28;;;1.88;;
31298;SDS011;17927;52.350;13.402;2022-11-06T13:52:33;2.60;;;1.52;;
31298;SDS011;17927;52.350;13.402;2022-11-06T13:55:21;4.47;;;1.73;;
31298;SDS011;17927;52.350;13.402;2022-11-06T14:00:36;3.25;;;1.50;;
31298;SDS011;17927;52.350;13.402;2022-11-06T14:03:25;2.40;;;1.50;;
31298;SDS011;17927;52.350;13.402;2022-11-06T14:06:04;2.05;;;1.40;;
31298;SDS011;17927;52.350;13.402;2022-11-06T14:11:17;4.65;;;1.42;;
31298;SDS011;17927;52.350;13.402;2022-11-06T14:13:58;2.70;;;1.73;;
31298;SDS011;17927;52.350;13.402;2022-11-06T14:16:33;12.15;;;9.90;;
31298;SDS011;17927;52.350;13.402;2022-11-06T14:19:11;5.18;;;3.60;;
31298;SDS011;17927;52.350;13.402;2022-11-06T14:24:27;3.50;;;2.55;;
31298;SDS011;17927;52.350;13.402;2022-11-06T14:26:54;2.00;;;1.70;;
31298;SDS011;17927;52.350;13.402;2022-11-06T14:32:01;2.83;;;1.80;;
31298;SDS011;17927;52.350;13.402;2022-11-06T14:34:34;2.10;;;1.88;;
31298;SDS011;17927;52.350;13.402;2022-11-06T14:44:47;2.85;;;1.73;;
31298;SDS011;17927;52.350;13.402;2022-11-06T14:47:38;2.88;;;2.03;;
31298;SDS011;17927;52.350;13.402;2022-11-06T14:52:43;7.00;;;2.03;;
31298;SDS011;17927;52.350;13.402;2022-11-06T14:55:23;2.17;;;1.98;;
31298;SDS011;17927;52.350;13.402;2022-11-06T14:57:52;2.13;;;2.03;;
31298;SDS011;17927;52.350;13.402;2022-11-06T15:00:32;5.28;;;2.05;;
31298;SDS011;17927;52.350;13.402;2022-11-06T15:03:02;3.05;;;2.00;;
31298;SDS011;17927;52.350;13.402;2022-11-06T15:05:30;3.70;;;2.83;;
31298;SDS011;17927;52.350;13.402;2022-11-06T15:08:00;2.75;;;2.10;;
31298;SDS011;17927;52.350;13.402;2022-11-06T15:13:09;3.63;;;1.88;;
31298;SDS011;17927;52.350;13.402;2022-11-06T15:15:38;1.92;;;1.75;;
31298;SDS011;17927;52.350;13.402;2022-11-06T15:18:08;6.68;;;2.28;;
31298;SDS011;17927;52.350;13.402;2022-11-06T15:20:35;3.60;;;1.77;;
31298;SDS011;17927;52.350;13.402;2022-11-06T15:23:02;3.50;;;2.10;;
31298;SDS011;17927;52.350;13.402;2022-11-06T15:25:34;3.55;;;2.30;;
31298;SDS011;17927;52.350;13.402;2022-11-06T15:28:13;2.10;;;1.40;;
31298;SDS011;17927;52.350;13.402;2022-11-06T15:30:46;6.13;;;1.88;;
31298;SDS011;17927;52.350;13.402;2022-11-06T15:33:16;3.30;;;2.15;;
31298;SDS011;17927;52.350;13.402;2022-11-06T15:35:48;2.97;;;2.35;;
31298;SDS011;17927;52.350;13.402;2022-11-06T15:38:16;2.50;;;2.28;;
31298;SDS011;17927;52.350;13.402;2022-11-06T15:40:44;2.58;;;2.05;;
31298;SDS011;17927;52.350;13.402;2022-11-06T15:46:01;4.18;;;3.17;;
31298;SDS011;17927;52.350;13.402;2022-11-06T15:48:35;6.75;;;4.45;;
31298;SDS011;17927;52.350;13.402;2022-11-06T15:51:00;4.57;;;3.83;;
31298;SDS011;17927;52.350;13.402;2022-11-06T15:53:26;7.05;;;4.70;;
31298;SDS011;17927;52.350;13.402;2022-11-06T15:56:00;7.75;;;5.90;;
31298;SDS011;17927;52.350;13.402;2022-11-06T15:58:30;8.18;;;5.82;;
31298;SDS011;17927;52.350;13.402;2022-11-06T16:01:00;6.97;;;5.88;;
31298;SDS011;17927;52.350;13.402;2022-11-06T16:03:28;8.97;;;5.70;;
31298;SDS011;17927;52.350;13.402;2022-11-06T16:05:56;10.57;;;5.57;;
31298;SDS011;17927;52.350;13.402;2022-11-06T16:08:24;9.25;;;5.25;;
31298;SDS011;17927;52.350;13.402;2022-11-06T16:10:53;7.60;;;5.38;;
31298;SDS011;17927;52.350;13.402;2022-11-06T16:13:20;9.73;;;5.40;;
31298;SDS011;17927;52.350;13.402;2022-11-06T16:15:49;8.32;;;5.07;;
31298;SDS011;17927;52.350;13.402;2022-11-06T16:21:06;9.18;;;4.53;;
31298;SDS011;17927;52.350;13.402;2022-11-06T16:23:39;7.07;;;5.90;;
31298;SDS011;17927;52.350;13.402;2022-11-06T16:26:08;5.38;;;4.85;;
31298;SDS011;17927;52.350;13.402;2022-11-06T16:28:40;6.85;;;4.40;;
31298;SDS011;17927;52.350;13.402;2022-11-06T16:31:09;5.60;;;3.78;;
31298;SDS011;17927;52.350;13.402;2022-11-06T16:36:05;4.13;;;3.10;;
31298;SDS011;17927;52.350;13.402;2022-11-06T16:38:35;3.90;;;3.20;;
31298;SDS011;17927;52.350;13.402;2022-11-06T16:41:07;3.17;;;2.38;;
31298;SDS011;17927;52.350;13.402;2022-11-06T16:43:33;4.97;;;2.92;;
31298;SDS011;17927;52.350;13.402;2022-11-06T16:45:59;5.90;;;2.40;;
31298;SDS011;17927;52.350;13.402;2022-11-06T16:48:31;3.33;;;2.60;;
31298;SDS011;17927;52.350;13.402;2022-11-06T16:51:02;2.78;;;2.58;;
31298;SDS011;17927;52.350;13.402;2022-11-06T16:53:30;4.75;;;3.15;;
31298;SDS011;17927;52.350;13.402;2022-11-06T16:56:06;4.70;;;2.75;;
31298;SDS011;17927;52.350;13.402;2022-11-06T16:58:48;4.72;;;2.75;;